x

South Hatteras - 225 South Of Cape Hatteras (41002) Wave Buoy

4:50 - Fri 24th Mar 2017 All times are EDT. -4 hours from GMT.

  • Sig Wave height 5.6ft
  • Swell Direction
  • Peak Period 9s
  • Average Period 6s
  • Wind
    13mph, 16mph gusts
  • Sea Temp 74°f
  • Aire Temp 64°f
  • Sea Pressure 1031.2mb
  • South Hatteras - 225 South Of Cape Hatteras
  • South Hatteras - 225 South Of Cape Hatteras

More Historic Weather Station data

Upgrade to MSW Pro to gain access to the past 30 days of data for over 8000 Wavebouys and Weather Stations around the globe.

Join Pro

Comparision Forecast

View Surf forecast
   
vie 03/24 4:50 5.5ft 9s 6s 13 16 mph 1031.2mb 74f 64f
3:50 5ft 10s 6s 18 22 mph 1031.4mb 74f 64f
2:50 5ft 7s 6s 16 18 mph 1031.8mb 73f 64f
1:50 4.5ft 11s 6s 13 18 mph 1032.8mb 73f 63f
12:50 5ft 10s 6s 16 20 mph 1033.3mb 73f 64f
11:50 5ft 10s 6s 13 18 mph 1033.5mb 73f 63f
10:50 5.5ft 10s 6s 16 22 mph 1033.3mb 73f 63f
9:50 5.5ft 10s 6s 13 18 mph 1033.1mb 73f 63f
8:50 5.5ft 10s 6s 20 25 mph 1033mb 73f 63f
7:50 6ft 8s 6s 16 20 mph 1033.3mb 73f 63f
6:50 6ft 9s 6s 16 22 mph 1032.6mb 73f 62f
5:50 5.5ft 8s 6s 16 22 mph 1031.9mb 73f 62f
4:50 6ft 10s 6s 18 25 mph 1031.1mb 73f 62f
3:50 6ft 10s 6s 18 22 mph 1031.2mb 73f 62f
2:50 5ft 7s 6s 16 22 mph 1031.8mb 73f 62f
1:50 6ft 10s 6s 20 25 mph 1032mb 72f 62f
12:50 6ft 8s 6s 18 22 mph 1032.3mb 72f 62f
jue 03/23 11:50 6ft 10s 6s 18 22 mph 1032.3mb 73f 62f
10:50 6.5ft 10s 6s 20 25 mph 1032.1mb 72f 62f
9:50 6.5ft 11s 6s 20 25 mph 1031.8mb 72f 62f
8:50 7ft 11s 6s 22 29 mph 1031mb 72f 62f
7:50 7ft 10s 6s 22 27 mph 1030.7mb 72f 61f
6:50 7ft 11s 6s 20 29 mph 1030.4mb 72f 61f
5:50 7ft 10s 6s 22 27 mph 1029.8mb 72f 61f
4:50 7.5ft 10s 6s 20 27 mph 1029.6mb 72f 61f
3:50 7ft 10s 6s 22 27 mph 1029.7mb 72f 60f
2:50 7ft 9s 6s 20 27 mph 1030mb 72f 60f
1:50 7.5ft 10s 6s 25 31 mph 1030mb 72f 60f
12:50 7ft 11s 6s 22 29 mph 1030.2mb 72f 61f
11:50 8.5ft 10s 6s 25 29 mph 1030mb 71f 61f
10:50 9ft 10s 7s 25 29 mph 1029.3mb 71f 61f
9:50 8ft 10s 6s 25 29 mph 1028.3mb 71f 61f
8:50 9ft 10s 7s 22 31 mph 1027.5mb 71f 61f
7:50 9ft 10s 7s 22 29 mph 1026.7mb 72f 61f
6:50 8.5ft 10s 7s 22 27 mph 1026.1mb 72f 61f
5:50 9ft 10s 7s 22 27 mph 1025.3mb 72f 61f
4:50 9ft 11s 7s 27 31 mph 1024.8mb 72f 61f
3:50 8.5ft 10s 6s 25 31 mph 1024.6mb 72f 61f
2:50 8.5ft 10s 6s 29 34 mph 1024.3mb 72f 61f
1:50 9ft 9s 6s 29 36 mph 1023.9mb 73f 61f
12:50 9ft 9s 6s 34 40 mph 1023.1mb 73f 61f
mié 03/22 11:50 9.5ft 10s 6s 29 36 mph 1022.9mb 73f 62f
10:50 10ft 7s 6s 31 36 mph 1022mb 73f 63f
9:50 9ft 7s 6s 31 36 mph 1021.1mb 74f 64f
8:50 8ft 8s 5s 34 40 mph 1020mb 74f 65f
7:50 8ft 8s 5s 34 38 mph 1019mb 75f 65f
6:50 8ft 7s 5s 29 36 mph 1018.1mb 75f 67f
5:50 8.5ft 8s 6s 29 34 mph 1016.6mb 75f 67f
4:50 8.5ft 8s 5s 29 36 mph 1015.5mb 76f 68f
3:50 8.5ft 8s 6s 31 36 mph 1014.4mb 76f 69f
2:50 8.5ft 8s 6s 29 34 mph 1014.1mb 75f 71f
1:50 9.5ft 8s 6s 27 31 mph 1014.4mb 75f 72f
12:50 9ft 8s 6s 25 27 mph 1014.2mb 75f 72f
11:50 10.5ft 7s 6s 31 40 mph 1013.8mb 75f 73f
10:50 9ft 8s 6s 31 36 mph 1013.4mb 75f 73f
9:50 9ft 7s 6s 29 36 mph 1013mb 75f 73f
8:50 9ft 7s 6s 27 34 mph 1013.3mb 75f 73f
7:50 9ft 7s 6s 27 31 mph 1012.7mb 75f 73f
6:50 8.5ft 7s 6s 25 31 mph 1013.7mb 75f 73f
5:50 9.5ft 7s 6s 29 34 mph 1014.2mb 75f 72f
4:50 9ft 7s 6s 27 31 mph 1014.3mb 75f 72f
3:50 9ft 7s 6s 27 31 mph 1014.6mb 74f 72f
2:50 8ft 7s 6s 25 31 mph 1015.2mb 75f 72f
1:50 9ft 7s 6s 25 31 mph 1015.4mb 75f 72f
12:50 8.5ft 6s 6s 25 31 mph 1015.6mb 75f 71f
mar 03/21 11:50 8ft 7s 6s 25 31 mph 1015.9mb 75f 71f
10:50 8ft 6s 6s 22 29 mph 1016.3mb 74f 71f
9:50 7ft 11s 6s 25 29 mph 1016.7mb 74f 70f
8:50 6.5ft 6s 6s 25 29 mph 1016.5mb 74f 70f
7:50 7ft 12s 6s 22 27 mph 1016.7mb 74f 70f
6:50 6.5ft 11s 6s 22 27 mph 1016.6mb 74f 70f
5:50 6.5ft 12s 6s 20 27 mph 1016.8mb 73f 70f
4:50 6.5ft 11s 6s 20 25 mph 1016.9mb 73f 69f
3:50 6ft 11s 6s 20 27 mph 1017.4mb 73f 69f
2:50 6ft 11s 7s 20 25 mph 1017.8mb 73f 68f
1:50 6ft 11s 7s 20 25 mph 1018.6mb 73f 68f
12:50 6.5ft 11s 8s 16 22 mph 1019.7mb 73f 68f
11:50 6ft 12s 8s 16 22 mph 1020.1mb 73f 67f
10:50 6.5ft 12s 7s 11 16 mph 1020mb 73f 67f
9:50 6ft 10s 7s 11 16 mph 1020.1mb 73f 66f
8:50 7ft 11s 8s 11 16 mph 1019.7mb 73f 65f
7:50 7ft 12s 8s 13 16 mph 1019.4mb 73f 65f
6:50 6ft 10s 7s 11 13 mph 1019.2mb 73f 65f
5:50 6.5ft 12s 7s 13 20 mph 1019.4mb 73f 64f
4:50 7.5ft 12s 8s 16 20 mph 1019.1mb 73f 64f
3:50 6.5ft 10s 7s 13 20 mph 1019.4mb 73f 64f
2:50 7ft 11s 7s 16 20 mph 1019.8mb 73f 63f
1:50 7ft 11s 8s 16 20 mph 1020mb 72f 63f
12:50 7.5ft 11s 8s 11 16 mph 1020.1mb 72f 63f
lun 03/20 11:50 6ft 11s 7s 11 16 mph 1020.5mb 72f 62f
10:50 6.5ft 12s 7s 11 16 mph 1020.4mb 72f 61f